Time;durP1;ratioP1;P1;durP2;ratioP2;P2;SDS_P1;SDS_P2;PMS_P1;PMS_P2;Temp;Humidity;BMP_temperature;BMP_pressure;BME280_temperature;BME280_humidity;BME280_pressure;Samples;Min_cycle;Max_cycle;Signal;HPM_P1;HPM_P2
2023/09/16 00:00:52;;;;;;;;;5.75;5.75;;;;;;;;5070768;28;8793;-79
2023/09/16 00:03:20;;;;;;;;;5.25;5.25;;;;;;;;5073361;28;8902;-79
2023/09/16 00:05:51;;;;;;;;;5.67;5.67;;;;;;;;5075409;28;8959;-79
2023/09/16 00:08:18;;;;;;;;;6.50;5.75;;;;;;;;5074386;28;8868;-80
2023/09/16 00:10:47;;;;;;;;;5.75;5.75;;;;;;;;5074908;28;8860;-78
2023/09/16 00:13:15;;;;;;;;;5.50;5.50;;;;;;;;5061877;28;8845;-78
2023/09/16 00:15:47;;;;;;;;;7.00;7.00;;;;;;;;5070266;28;9584;-80
2023/09/16 00:18:16;;;;;;;;;6.50;4.75;;;;;;;;5069328;28;8885;-81
2023/09/16 00:20:44;;;;;;;;;4.75;4.75;;;;;;;;5069511;28;8849;-79
2023/09/16 00:23:14;;;;;;;;;5.50;5.50;;;;;;;;5069259;28;8876;-79
2023/09/16 00:25:41;;;;;;;;;6.25;6.25;;;;;;;;5069061;28;8861;-80
2023/09/16 00:28:09;;;;;;;;;4.50;4.50;;;;;;;;5068803;28;8875;-79
2023/09/16 00:30:37;;;;;;;;;6.50;5.50;;;;;;;;5068591;28;8789;-79
2023/09/16 00:33:04;;;;;;;;;4.75;4.75;;;;;;;;5068304;28;8961;-80
2023/09/16 00:35:32;;;;;;;;;4.75;4.75;;;;;;;;5069249;28;8891;-80
2023/09/16 00:37:59;;;;;;;;;5.00;5.00;;;;;;;;5068505;28;8886;-80
2023/09/16 00:40:27;;;;;;;;;4.25;4.25;;;;;;;;5070112;28;8852;-79
2023/09/16 00:42:55;;;;;;;;;7.50;6.50;;;;;;;;5070358;28;8872;-80
2023/09/16 00:45:22;;;;;;;;;5.50;5.50;;;;;;;;5069796;28;8891;-80
2023/09/16 00:47:49;;;;;;;;;5.75;5.75;;;;;;;;5069234;28;8955;-81
2023/09/16 00:50:20;;;;;;;;;7.50;6.00;;;;;;;;5051061;28;8848;-79
2023/09/16 00:52:50;;;;;;;;;7.75;7.75;;;;;;;;5068579;28;8868;-80
2023/09/16 00:55:21;;;;;;;;;5.75;5.75;;;;;;;;5068262;28;8856;-80
2023/09/16 00:57:51;;;;;;;;;5.25;5.25;;;;;;;;5068756;28;8875;-80
2023/09/16 01:00:19;;;;;;;;;5.75;5.75;;;;;;;;5067937;28;9077;-79
2023/09/16 01:02:47;;;;;;;;;9.00;7.00;;;;;;;;5068078;28;8882;-79
2023/09/16 01:05:15;;;;;;;;;5.00;5.00;;;;;;;;5068288;28;8855;-80
2023/09/16 01:07:42;;;;;;;;;6.25;6.25;;;;;;;;5067837;28;8925;-80
2023/09/16 01:10:11;;;;;;;;;5.00;5.00;;;;;;;;5068890;28;8852;-80
2023/09/16 01:12:40;;;;;;;;;8.00;6.25;;;;;;;;5065668;28;8856;-79
2023/09/16 01:15:09;;;;;;;;;9.50;6.00;;;;;;;;5068778;28;8929;-79
2023/09/16 01:17:43;;;;;;;;;6.00;6.00;;;;;;;;5068306;28;8856;-80
2023/09/16 01:20:13;;;;;;;;;4.75;4.75;;;;;;;;5068055;28;8860;-79
2023/09/16 01:22:45;;;;;;;;;4.00;4.00;;;;;;;;5068323;28;8845;-80
2023/09/16 01:25:14;;;;;;;;;5.75;5.75;;;;;;;;5068844;28;8937;-79
2023/09/16 01:27:41;;;;;;;;;6.25;6.25;;;;;;;;5069069;28;8840;-79
2023/09/16 01:30:10;;;;;;;;;2.00;2.00;;;;;;;;5068390;28;8880;-79
2023/09/16 01:32:43;;;;;;;;;5.50;5.50;;;;;;;;5068209;28;8852;-81
2023/09/16 01:35:14;;;;;;;;;5.00;5.00;;;;;;;;5069019;28;8941;-80
2023/09/16 01:37:43;;;;;;;;;8.50;8.50;;;;;;;;5069206;28;8849;-79
2023/09/16 01:40:13;;;;;;;;;8.25;6.50;;;;;;;;5069203;28;8856;-81
2023/09/16 01:42:41;;;;;;;;;7.50;7.50;;;;;;;;5059747;28;8833;-79
2023/09/16 01:45:10;;;;;;;;;6.75;6.75;;;;;;;;5072047;28;8876;-80
2023/09/16 01:47:38;;;;;;;;;5.75;5.75;;;;;;;;5054520;28;8856;-79
2023/09/16 01:50:06;;;;;;;;;7.00;6.00;;;;;;;;5073245;28;8999;-79
2023/09/16 01:52:33;;;;;;;;;8.75;8.00;;;;;;;;5074306;28;8860;-79
2023/09/16 01:55:00;;;;;;;;;6.00;6.00;;;;;;;;5069992;28;8849;-83
2023/09/16 01:57:29;;;;;;;;;7.25;7.25;;;;;;;;5068738;28;8882;-80
2023/09/16 01:59:56;;;;;;;;;7.75;7.25;;;;;;;;5067163;28;8855;-80
2023/09/16 02:02:23;;;;;;;;;6.50;6.50;;;;;;;;5067929;28;8946;-79
2023/09/16 02:04:51;;;;;;;;;7.75;7.75;;;;;;;;5067791;28;8844;-79
2023/09/16 02:07:18;;;;;;;;;6.75;6.75;;;;;;;;5067731;28;8844;-80
2023/09/16 02:09:45;;;;;;;;;7.00;7.00;;;;;;;;5067782;28;8844;-79
2023/09/16 02:12:13;;;;;;;;;8.50;8.00;;;;;;;;5068016;28;8930;-80
2023/09/16 02:14:41;;;;;;;;;9.50;8.00;;;;;;;;5067632;28;8977;-81
2023/09/16 02:17:09;;;;;;;;;8.50;8.50;;;;;;;;5069494;28;8853;-81
2023/09/16 02:19:36;;;;;;;;;9.00;7.50;;;;;;;;5071808;28;8872;-80
2023/09/16 02:22:04;;;;;;;;;7.50;7.50;;;;;;;;5074322;28;8970;-80
2023/09/16 02:24:32;;;;;;;;;8.50;8.50;;;;;;;;5072644;28;8836;-81
2023/09/16 02:27:00;;;;;;;;;9.00;9.00;;;;;;;;5071978;28;8999;-81
2023/09/16 02:29:27;;;;;;;;;7.75;7.75;;;;;;;;5076541;28;8857;-82
2023/09/16 02:31:56;;;;;;;;;7.00;6.50;;;;;;;;5077300;28;8801;-80
2023/09/16 02:34:23;;;;;;;;;6.50;6.50;;;;;;;;5071038;28;8966;-80
2023/09/16 02:36:50;;;;;;;;;7.00;7.00;;;;;;;;5070989;28;8884;-79
2023/09/16 02:39:18;;;;;;;;;9.25;7.50;;;;;;;;5071661;28;8879;-80
2023/09/16 02:41:45;;;;;;;;;7.25;7.25;;;;;;;;5071929;28;8857;-81
2023/09/16 02:44:12;;;;;;;;;7.50;7.50;;;;;;;;5073793;28;8849;-82
2023/09/16 02:46:39;;;;;;;;;7.75;7.75;;;;;;;;5073002;28;8896;-79
2023/09/16 02:49:08;;;;;;;;;9.50;7.50;;;;;;;;5072442;28;8860;-78
2023/09/16 02:51:35;;;;;;;;;6.25;6.00;;;;;;;;5071046;28;8967;-81
2023/09/16 02:54:05;;;;;;;;;7.25;7.25;;;;;;;;5070849;28;8967;-79
2023/09/16 02:56:35;;;;;;;;;9.00;9.00;;;;;;;;5070766;28;8860;-80
2023/09/16 02:59:05;;;;;;;;;6.75;6.75;;;;;;;;5071485;28;8866;-79
2023/09/16 03:01:32;;;;;;;;;6.00;6.00;;;;;;;;5070296;28;8807;-79
2023/09/16 03:03:59;;;;;;;;;6.75;6.75;;;;;;;;5071092;28;8860;-80
2023/09/16 03:06:28;;;;;;;;;9.00;7.25;;;;;;;;5069870;28;8866;-79
2023/09/16 03:08:55;;;;;;;;;6.00;6.00;;;;;;;;5070951;28;8864;-81
2023/09/16 03:11:23;;;;;;;;;4.00;4.00;;;;;;;;5070323;28;8951;-79
2023/09/16 03:13:50;;;;;;;;;9.00;7.75;;;;;;;;5071131;28;9098;-80
2023/09/16 03:16:22;;;;;;;;;7.00;7.00;;;;;;;;5070631;28;8867;-79
2023/09/16 03:18:51;;;;;;;;;8.50;8.50;;;;;;;;5071287;28;8906;-80
2023/09/16 03:21:19;;;;;;;;;9.50;9.00;;;;;;;;5070966;28;8980;-79
2023/09/16 03:23:48;;;;;;;;;9.00;8.00;;;;;;;;5075741;28;8848;-78
2023/09/16 03:26:16;;;;;;;;;7.00;7.00;;;;;;;;5075087;28;8845;-79
2023/09/16 03:28:45;;;;;;;;;7.00;7.00;;;;;;;;5075627;28;8876;-80
2023/09/16 03:31:12;;;;;;;;;7.00;7.00;;;;;;;;5064028;28;8796;-79
2023/09/16 03:33:39;;;;;;;;;5.50;5.50;;;;;;;;5075662;28;8888;-79
2023/09/16 03:36:08;;;;;;;;;7.75;7.75;;;;;;;;5080707;28;8927;-79
2023/09/16 03:38:36;;;;;;;;;7.00;7.00;;;;;;;;5070930;28;8982;-82
2023/09/16 03:41:05;;;;;;;;;8.75;7.75;;;;;;;;5069347;28;8844;-81
2023/09/16 03:43:35;;;;;;;;;6.75;6.75;;;;;;;;5069369;28;8848;-81
2023/09/16 03:46:05;;;;;;;;;8.75;8.50;;;;;;;;5069752;28;8845;-80
2023/09/16 03:48:35;;;;;;;;;8.25;7.50;;;;;;;;5067634;28;8844;-81
2023/09/16 03:51:06;;;;;;;;;7.75;7.75;;;;;;;;5069626;28;8978;-81
2023/09/16 03:53:35;;;;;;;;;6.25;5.75;;;;;;;;5068946;28;8848;-80
2023/09/16 03:56:08;;;;;;;;;8.25;8.25;;;;;;;;5070140;28;8880;-82
2023/09/16 03:58:36;;;;;;;;;8.00;8.00;;;;;;;;5069544;28;8891;-79
2023/09/16 04:01:03;;;;;;;;;10.00;9.25;;;;;;;;5070649;28;8823;-80
2023/09/16 04:03:32;;;;;;;;;7.25;7.25;;;;;;;;5071364;28;8937;-79
2023/09/16 04:06:01;;;;;;;;;7.25;7.25;;;;;;;;5070783;28;9642;-79
2023/09/16 04:08:28;;;;;;;;;7.75;7.75;;;;;;;;5069071;28;8860;-80
2023/09/16 04:10:56;;;;;;;;;8.75;7.00;;;;;;;;5068764;28;8878;-80
2023/09/16 04:13:24;;;;;;;;;10.25;10.00;;;;;;;;5068539;28;8866;-79
2023/09/16 04:15:52;;;;;;;;;8.25;8.25;;;;;;;;5068250;28;9673;-79
2023/09/16 04:18:19;;;;;;;;;8.25;8.25;;;;;;;;5069316;28;8837;-79
2023/09/16 04:20:50;;;;;;;;;9.25;7.75;;;;;;;;5069002;28;8848;-80
2023/09/16 04:23:20;;;;;;;;;7.50;7.25;;;;;;;;5069705;28;8978;-80
2023/09/16 04:25:47;;;;;;;;;7.00;7.00;;;;;;;;5068412;28;8853;-79
2023/09/16 04:28:15;;;;;;;;;9.75;9.75;;;;;;;;5069192;28;8967;-79
2023/09/16 04:30:50;;;;;;;;;8.75;8.25;;;;;;;;5067853;28;8801;-81
2023/09/16 04:33:21;;;;;;;;;8.25;7.00;;;;;;;;5068925;28;8836;-79
2023/09/16 04:35:49;;;;;;;;;7.50;7.50;;;;;;;;5067992;28;9657;-80
2023/09/16 04:38:18;;;;;;;;;10.25;6.25;;;;;;;;5069218;28;8844;-79
2023/09/16 04:40:46;;;;;;;;;8.75;8.75;;;;;;;;5069386;28;9619;-79
2023/09/16 04:43:13;;;;;;;;;8.50;8.50;;;;;;;;5069130;28;8832;-78
2023/09/16 04:45:43;;;;;;;;;8.00;8.00;;;;;;;;5068148;28;8872;-80
2023/09/16 04:48:14;;;;;;;;;8.00;8.00;;;;;;;;5068415;28;8840;-77
2023/09/16 04:50:41;;;;;;;;;8.25;8.25;;;;;;;;5056349;28;8860;-79
2023/09/16 04:53:09;;;;;;;;;8.75;7.00;;;;;;;;5068526;28;8917;-79
2023/09/16 04:55:37;;;;;;;;;10.75;9.00;;;;;;;;5068992;28;8987;-79
2023/09/16 04:58:04;;;;;;;;;9.00;9.00;;;;;;;;5069046;28;8845;-79
2023/09/16 05:00:34;;;;;;;;;8.75;8.75;;;;;;;;5069861;28;8904;-79
2023/09/16 05:03:01;;;;;;;;;10.25;9.75;;;;;;;;5073136;28;8893;-79
2023/09/16 05:05:29;;;;;;;;;11.00;11.00;;;;;;;;5073109;28;8844;-79
2023/09/16 05:07:57;;;;;;;;;8.00;8.00;;;;;;;;5072887;28;8824;-80
2023/09/16 05:10:24;;;;;;;;;10.00;8.25;;;;;;;;5072627;28;9007;-74
2023/09/16 05:12:51;;;;;;;;;8.50;7.75;;;;;;;;5069501;28;8841;-75
2023/09/16 05:15:18;;;;;;;;;7.00;7.00;;;;;;;;5067948;28;8832;-74
2023/09/16 05:17:46;;;;;;;;;11.25;10.25;;;;;;;;5066888;28;8845;-71
2023/09/16 05:20:13;;;;;;;;;8.50;8.50;;;;;;;;5068226;28;8895;-73
2023/09/16 05:22:41;;;;;;;;;9.50;9.50;;;;;;;;5067580;28;9787;-78
2023/09/16 05:25:09;;;;;;;;;11.25;10.50;;;;;;;;5068653;28;8841;-80
2023/09/16 05:27:36;;;;;;;;;10.75;10.75;;;;;;;;5067156;28;8886;-83
2023/09/16 05:30:04;;;;;;;;;11.25;9.75;;;;;;;;5067932;28;8866;-74
2023/09/16 05:32:32;;;;;;;;;14.25;14.25;;;;;;;;5067469;28;8844;-83
2023/09/16 05:35:01;;;;;;;;;26.33;24.67;;;;;;;;5067726;28;9646;-88
2023/09/16 05:37:28;;;;;;;;;14.25;11.75;;;;;;;;5069623;28;9248;-85
2023/09/16 05:39:59;;;;;;;;;10.00;10.00;;;;;;;;5072050;28;8905;-86
2023/09/16 05:42:26;;;;;;;;;9.00;8.50;;;;;;;;5067785;28;8844;-86
2023/09/16 05:44:53;;;;;;;;;9.50;9.50;;;;;;;;5068014;28;8902;-75
2023/09/16 05:47:21;;;;;;;;;10.50;10.00;;;;;;;;5067057;28;8852;-78
2023/09/16 05:49:48;;;;;;;;;11.00;9.50;;;;;;;;5067465;28;8853;-80
2023/09/16 05:52:18;;;;;;;;;9.75;9.75;;;;;;;;5068965;28;8905;-73
2023/09/16 05:54:46;;;;;;;;;9.50;9.50;;;;;;;;5072066;28;8864;-71
2023/09/16 05:57:14;;;;;;;;;8.75;8.75;;;;;;;;5071743;28;8864;-74
2023/09/16 05:59:41;;;;;;;;;9.25;9.25;;;;;;;;5071440;28;8848;-73
2023/09/16 06:02:09;;;;;;;;;12.00;10.25;;;;;;;;5070857;28;8809;-81
2023/09/16 06:04:36;;;;;;;;;10.25;10.25;;;;;;;;5070706;28;8860;-74
2023/09/16 06:07:03;;;;;;;;;12.25;12.25;;;;;;;;5071727;28;8872;-78
2023/09/16 06:09:30;;;;;;;;;9.75;9.75;;;;;;;;5071005;28;8862;-78
2023/09/16 06:11:57;;;;;;;;;10.75;10.75;;;;;;;;5071723;28;8840;-73
2023/09/16 06:14:26;;;;;;;;;12.25;12.25;;;;;;;;5071958;28;8850;-70
2023/09/16 06:16:53;;;;;;;;;11.00;11.00;;;;;;;;5073895;28;8896;-77
2023/09/16 06:19:20;;;;;;;;;10.50;10.50;;;;;;;;5071138;28;8854;-78
2023/09/16 06:21:48;;;;;;;;;11.75;10.50;;;;;;;;5071263;28;8971;-70
2023/09/16 06:24:15;;;;;;;;;11.00;11.00;;;;;;;;5071286;28;8837;-75
2023/09/16 06:26:46;;;;;;;;;11.25;11.25;;;;;;;;5070165;28;8852;-74
2023/09/16 06:29:15;;;;;;;;;11.00;9.25;;;;;;;;5071379;28;8847;-75
2023/09/16 06:31:43;;;;;;;;;12.25;9.00;;;;;;;;5070627;28;8932;-73
2023/09/16 06:34:10;;;;;;;;;9.25;9.25;;;;;;;;5070535;28;8840;-72
2023/09/16 06:36:40;;;;;;;;;11.25;11.25;;;;;;;;5071921;28;8835;-70
2023/09/16 06:39:12;;;;;;;;;10.00;10.00;;;;;;;;5073206;28;8930;-70
2023/09/16 06:41:42;;;;;;;;;9.75;9.75;;;;;;;;5039285;28;8848;-72
2023/09/16 06:44:09;;;;;;;;;9.75;9.75;;;;;;;;5072991;28;8860;-71
2023/09/16 06:46:36;;;;;;;;;9.75;8.75;;;;;;;;5073227;28;9292;-71
2023/09/16 06:49:05;;;;;;;;;11.50;11.50;;;;;;;;5072578;28;8840;-72
2023/09/16 06:51:32;;;;;;;;;10.50;10.50;;;;;;;;5070177;28;8868;-82
2023/09/16 06:53:59;;;;;;;;;10.75;9.50;;;;;;;;5069941;28;8856;-74
2023/09/16 06:56:26;;;;;;;;;11.25;10.50;;;;;;;;5069766;28;8866;-75
2023/09/16 06:58:56;;;;;;;;;14.50;12.00;;;;;;;;5069862;28;8865;-82
2023/09/16 07:01:23;;;;;;;;;10.50;10.50;;;;;;;;5068349;28;8900;-70
2023/09/16 07:03:51;;;;;;;;;13.00;13.00;;;;;;;;5068048;28;8840;-71
2023/09/16 07:06:19;;;;;;;;;7.75;7.25;;;;;;;;5068335;28;8868;-69
2023/09/16 07:08:47;;;;;;;;;12.00;11.00;;;;;;;;5059855;28;8837;-75
2023/09/16 07:11:15;;;;;;;;;11.00;9.25;;;;;;;;5067734;28;8829;-79
2023/09/16 07:13:42;;;;;;;;;11.50;11.50;;;;;;;;5070512;28;8880;-81
2023/09/16 07:16:12;;;;;;;;;10.00;10.00;;;;;;;;5068129;28;8848;-75
2023/09/16 07:18:40;;;;;;;;;12.25;12.25;;;;;;;;5068411;28;8864;-72
2023/09/16 07:21:07;;;;;;;;;11.75;11.75;;;;;;;;5068570;28;8963;-79
2023/09/16 07:23:36;;;;;;;;;14.00;11.25;;;;;;;;5068889;28;8852;-83
2023/09/16 07:26:03;;;;;;;;;10.00;10.00;;;;;;;;5068450;28;8982;-75
2023/09/16 07:28:30;;;;;;;;;8.75;8.75;;;;;;;;5068594;28;8852;-82
2023/09/16 07:30:57;;;;;;;;;10.25;10.25;;;;;;;;5067267;28;8805;-76
2023/09/16 07:33:25;;;;;;;;;8.75;8.00;;;;;;;;5068601;28;8908;-78
2023/09/16 07:35:54;;;;;;;;;11.00;11.00;;;;;;;;5067969;28;8836;-78
2023/09/16 07:38:21;;;;;;;;;11.50;11.50;;;;;;;;5068390;28;8974;-75
2023/09/16 07:40:52;;;;;;;;;11.75;11.75;;;;;;;;5068990;28;8875;-70
2023/09/16 07:43:20;;;;;;;;;11.75;11.75;;;;;;;;5069091;28;8887;-74
2023/09/16 07:45:48;;;;;;;;;10.25;10.00;;;;;;;;5068127;28;8959;-71
2023/09/16 07:48:17;;;;;;;;;14.33;11.00;;;;;;;;5028259;28;1165125;-75
2023/09/16 07:50:44;;;;;;;;;10.75;10.75;;;;;;;;5068961;28;8845;-77
2023/09/16 07:53:11;;;;;;;;;13.00;13.00;;;;;;;;5068577;28;8840;-70
2023/09/16 07:55:40;;;;;;;;;12.00;12.00;;;;;;;;5069176;28;8837;-76
2023/09/16 07:58:08;;;;;;;;;9.75;9.75;;;;;;;;5068749;28;8852;-72
2023/09/16 08:00:36;;;;;;;;;9.25;9.25;;;;;;;;5067587;28;8772;-72
2023/09/16 08:03:03;;;;;;;;;9.60;9.60;;;;;;;;5068743;28;8951;-71
2023/09/16 08:05:38;;;;;;;;;9.60;9.60;;;;;;;;5069123;28;8852;-74
2023/09/16 08:08:05;;;;;;;;;12.00;12.00;;;;;;;;5069256;28;8841;-75
2023/09/16 08:10:32;;;;;;;;;11.00;10.00;;;;;;;;5068957;28;8875;-70
2023/09/16 08:13:04;;;;;;;;;2.80;2.80;;;;;;;;5068754;28;8895;-74
2023/09/16 08:15:33;;;;;;;;;10.00;10.00;;;;;;;;5069116;28;8925;-73
2023/09/16 08:18:00;;;;;;;;;7.60;7.60;;;;;;;;5072630;28;8841;-73
2023/09/16 08:20:29;;;;;;;;;12.00;10.20;;;;;;;;5071841;28;8872;-70
2023/09/16 08:22:56;;;;;;;;;8.20;8.20;;;;;;;;5071883;28;9281;-70
2023/09/16 08:25:24;;;;;;;;;12.20;11.60;;;;;;;;5072226;28;8844;-70
2023/09/16 08:27:51;;;;;;;;;8.20;8.20;;;;;;;;5068396;28;8860;-76
2023/09/16 08:30:20;;;;;;;;;12.60;11.20;;;;;;;;5068846;28;8848;-74
2023/09/16 08:32:49;;;;;;;;;8.40;8.00;;;;;;;;5069793;28;9002;-71
2023/09/16 08:35:18;;;;;;;;;8.60;8.20;;;;;;;;5069016;28;8852;-82
2023/09/16 08:37:45;;;;;;;;;10.00;10.00;;;;;;;;5068457;28;8855;-73
2023/09/16 08:40:15;;;;;;;;;7.80;7.80;;;;;;;;5067817;28;9677;-70
2023/09/16 08:42:47;;;;;;;;;10.80;9.20;;;;;;;;5068255;28;8868;-77
2023/09/16 08:45:16;;;;;;;;;10.20;8.80;;;;;;;;5067711;28;8836;-70
2023/09/16 08:47:49;;;;;;;;;9.00;9.00;;;;;;;;5068096;28;8852;-70
2023/09/16 08:50:17;;;;;;;;;8.40;6.40;;;;;;;;5068705;28;8844;-75
2023/09/16 08:52:47;;;;;;;;;7.80;7.80;;;;;;;;5067933;28;8844;-74
2023/09/16 08:55:15;;;;;;;;;9.40;8.00;;;;;;;;5067481;28;9728;-70
2023/09/16 08:57:48;;;;;;;;;10.20;8.60;;;;;;;;5067444;28;8844;-71
2023/09/16 09:00:16;;;;;;;;;8.40;8.40;;;;;;;;5065371;28;8856;-73
2023/09/16 09:02:45;;;;;;;;;10.20;10.20;;;;;;;;5067287;28;8856;-70
2023/09/16 09:05:14;;;;;;;;;7.60;7.60;;;;;;;;5066393;28;8844;-69
2023/09/16 09:07:42;;;;;;;;;8.20;8.20;;;;;;;;5067611;28;8856;-70
2023/09/16 09:10:12;;;;;;;;;8.60;8.60;;;;;;;;5067851;28;8856;-70
2023/09/16 09:12:40;;;;;;;;;9.60;9.60;;;;;;;;5067464;28;8874;-77
2023/09/16 09:15:11;;;;;;;;;7.40;7.40;;;;;;;;5068133;28;8977;-72
2023/09/16 09:17:39;;;;;;;;;8.80;7.20;;;;;;;;5067701;28;8843;-72
2023/09/16 09:20:10;;;;;;;;;8.60;8.60;;;;;;;;5067621;28;8852;-77
2023/09/16 09:22:40;;;;;;;;;8.60;8.60;;;;;;;;5067407;28;8857;-80
2023/09/16 09:25:08;;;;;;;;;8.60;8.60;;;;;;;;5068149;28;8848;-76
2023/09/16 09:27:35;;;;;;;;;8.80;8.80;;;;;;;;5067002;28;8866;-80
2023/09/16 09:30:04;;;;;;;;;8.20;8.20;;;;;;;;5067804;28;8850;-71
2023/09/16 09:32:32;;;;;;;;;7.60;4.80;;;;;;;;5046863;28;8799;-75
2023/09/16 09:35:06;;;;;;;;;8.00;8.00;;;;;;;;5048064;28;8846;-77
2023/09/16 09:37:34;;;;;;;;;11.00;11.00;;;;;;;;5045854;28;8976;-71
2023/09/16 09:40:08;;;;;;;;;7.00;7.00;;;;;;;;5047735;28;8930;-69
2023/09/16 09:42:41;;;;;;;;;5.60;5.60;;;;;;;;5047624;28;9008;-72
2023/09/16 09:45:08;;;;;;;;;8.00;8.00;;;;;;;;5047207;28;8886;-70
2023/09/16 09:47:36;;;;;;;;;9.40;7.80;;;;;;;;5047342;28;8881;-70
2023/09/16 09:50:04;;;;;;;;;8.60;8.60;;;;;;;;5046936;28;8841;-70
2023/09/16 09:52:32;;;;;;;;;6.80;6.80;;;;;;;;5049141;28;8858;-70
2023/09/16 09:54:58;;;;;;;;;8.80;8.80;;;;;;;;5050256;28;8896;-69
2023/09/16 09:57:28;;;;;;;;;7.80;7.80;;;;;;;;5050485;28;8852;-71
2023/09/16 09:59:56;;;;;;;;;8.20;7.80;;;;;;;;5049233;28;8854;-71
2023/09/16 10:02:25;;;;;;;;;7.00;7.00;;;;;;;;5069259;28;8808;-70
2023/09/16 10:04:58;;;;;;;;;7.00;7.00;;;;;;;;5067961;28;8848;-89
2023/09/16 10:07:26;;;;;;;;;7.00;7.00;;;;;;;;5068306;28;8867;-79
2023/09/16 10:09:53;;;;;;;;;6.60;6.60;;;;;;;;5069420;28;8864;-80
2023/09/16 10:12:21;;;;;;;;;5.40;5.40;;;;;;;;5071304;28;8840;-78
2023/09/16 10:14:51;;;;;;;;;5.20;5.20;;;;;;;;5067521;28;8967;-81
2023/09/16 10:17:19;;;;;;;;;6.40;6.40;;;;;;;;5067410;28;8840;-74
2023/09/16 10:19:47;;;;;;;;;9.40;8.60;;;;;;;;5067769;28;8860;-80
2023/09/16 10:22:15;;;;;;;;;5.00;5.00;;;;;;;;5067103;28;8929;-89
2023/09/16 10:24:42;;;;;;;;;8.60;8.60;;;;;;;;5067523;28;8856;-80
2023/09/16 10:27:15;;;;;;;;;6.20;6.20;;;;;;;;5069326;28;8974;-78
2023/09/16 10:29:46;;;;;;;;;8.20;8.20;;;;;;;;5080561;28;8879;-81
2023/09/16 10:32:15;;;;;;;;;8.60;8.00;;;;;;;;5066632;28;8801;-80
2023/09/16 10:34:45;;;;;;;;;6.00;6.00;;;;;;;;5067153;28;8975;-79
2023/09/16 10:37:16;;;;;;;;;5.60;5.60;;;;;;;;5067431;28;8886;-75
2023/09/16 10:39:44;;;;;;;;;8.60;8.00;;;;;;;;5071292;28;8849;-88
2023/09/16 10:42:16;;;;;;;;;6.60;6.60;;;;;;;;5071048;28;8849;-85
2023/09/16 10:44:45;;;;;;;;;8.00;8.00;;;;;;;;5070571;28;8859;-87
2023/09/16 10:47:16;;;;;;;;;6.40;6.20;;;;;;;;5070556;28;8828;-84
2023/09/16 10:49:43;;;;;;;;;5.00;5.00;;;;;;;;5070487;28;8853;-70
2023/09/16 10:52:16;;;;;;;;;7.40;7.40;;;;;;;;5070253;28;8860;-80
2023/09/16 10:54:51;;;;;;;;;6.80;6.80;;;;;;;;5083020;28;8838;-77
2023/09/16 10:57:25;;;;;;;;;7.40;7.00;;;;;;;;5071272;28;8955;-75
2023/09/16 10:59:53;;;;;;;;;6.40;5.80;;;;;;;;5070360;28;8864;-82
2023/09/16 11:02:30;;;;;;;;;5.20;4.60;;;;;;;;5069860;28;8792;-78
2023/09/16 11:04:57;;;;;;;;;8.00;8.00;;;;;;;;5070760;28;8971;-78
2023/09/16 11:07:25;;;;;;;;;6.00;5.00;;;;;;;;5068997;28;8867;-79
2023/09/16 11:09:53;;;;;;;;;6.00;6.00;;;;;;;;5070325;28;8844;-81
2023/09/16 11:12:21;;;;;;;;;6.20;6.20;;;;;;;;5070057;28;8888;-78
2023/09/16 11:14:50;;;;;;;;;6.00;6.00;;;;;;;;5070349;28;8994;-81
2023/09/16 11:17:24;;;;;;;;;6.20;6.20;;;;;;;;5070570;28;9691;-79
2023/09/16 11:19:53;;;;;;;;;6.00;6.00;;;;;;;;5070541;28;8984;-80
2023/09/16 11:22:21;;;;;;;;;4.40;4.00;;;;;;;;5069530;28;8887;-75
2023/09/16 11:24:54;;;;;;;;;4.60;4.60;;;;;;;;5071240;28;8846;-76
2023/09/16 11:27:21;;;;;;;;;4.80;4.80;;;;;;;;5070066;28;8863;-76
2023/09/16 11:29:53;;;;;;;;;3.40;3.40;;;;;;;;5072450;28;8845;-76
2023/09/16 11:32:24;;;;;;;;;8.40;6.00;;;;;;;;5071769;28;8843;-80
2023/09/16 11:34:53;;;;;;;;;3.20;3.20;;;;;;;;5072847;28;8907;-76
2023/09/16 11:37:24;;;;;;;;;7.20;4.60;;;;;;;;5072468;28;8890;-76
2023/09/16 11:39:55;;;;;;;;;6.40;4.60;;;;;;;;5074159;28;8852;-76
2023/09/16 11:42:22;;;;;;;;;5.80;5.80;;;;;;;;5071995;28;8930;-81
2023/09/16 11:44:49;;;;;;;;;6.00;4.00;;;;;;;;5069465;28;8840;-79
2023/09/16 11:47:18;;;;;;;;;5.40;5.40;;;;;;;;5062042;28;8848;-79
2023/09/16 11:49:48;;;;;;;;;5.20;5.20;;;;;;;;5068183;28;8825;-81
2023/09/16 11:52:18;;;;;;;;;5.20;5.20;;;;;;;;5064770;28;8872;-81
2023/09/16 11:54:48;;;;;;;;;6.00;6.00;;;;;;;;5069292;28;8841;-80
2023/09/16 11:57:15;;;;;;;;;6.60;6.00;;;;;;;;5069946;28;8867;-80
2023/09/16 11:59:43;;;;;;;;;5.80;5.80;;;;;;;;5068406;28;8894;-78
2023/09/16 12:02:11;;;;;;;;;5.00;5.00;;;;;;;;5068539;28;9685;-80
2023/09/16 12:04:39;;;;;;;;;5.00;5.00;;;;;;;;5070275;28;9667;-80
2023/09/16 12:07:08;;;;;;;;;5.00;5.00;;;;;;;;5069604;28;8866;-78
2023/09/16 12:09:35;;;;;;;;;5.00;5.00;;;;;;;;5068782;28;8844;-80
2023/09/16 12:12:05;;;;;;;;;5.40;4.60;;;;;;;;5069651;28;8849;-77
2023/09/16 12:14:33;;;;;;;;;6.00;6.00;;;;;;;;5051134;28;8997;-79
2023/09/16 12:17:00;;;;;;;;;5.80;5.80;;;;;;;;5068649;28;8959;-79
2023/09/16 12:19:32;;;;;;;;;5.00;5.00;;;;;;;;5061335;28;8852;-78
2023/09/16 12:21:59;;;;;;;;;6.80;6.80;;;;;;;;5068727;28;8844;-80
2023/09/16 12:24:28;;;;;;;;;4.80;4.80;;;;;;;;5067782;28;8967;-77
2023/09/16 12:26:56;;;;;;;;;7.20;6.60;;;;;;;;5068256;28;8875;-77
2023/09/16 12:29:23;;;;;;;;;4.20;4.20;;;;;;;;5080755;28;8864;-77
2023/09/16 12:31:51;;;;;;;;;5.40;5.40;;;;;;;;5067889;28;8788;-77
2023/09/16 12:34:18;;;;;;;;;4.20;4.20;;;;;;;;5067951;28;8875;-79
2023/09/16 12:36:50;;;;;;;;;4.60;4.60;;;;;;;;5069108;28;8873;-77
2023/09/16 12:39:20;;;;;;;;;7.00;7.00;;;;;;;;5068091;28;8883;-77
2023/09/16 12:41:58;;;;;;;;;6.40;6.40;;;;;;;;5068452;28;8864;-80
2023/09/16 12:44:25;;;;;;;;;3.60;3.60;;;;;;;;5067508;28;8840;-77
2023/09/16 12:46:53;;;;;;;;;5.20;5.20;;;;;;;;5067748;28;8852;-79
2023/09/16 12:49:23;;;;;;;;;5.00;4.40;;;;;;;;5068184;28;8856;-77
2023/09/16 12:51:50;;;;;;;;;3.80;3.80;;;;;;;;5067522;28;8832;-77
2023/09/16 12:54:20;;;;;;;;;5.80;5.80;;;;;;;;5068452;28;8967;-77
2023/09/16 12:56:49;;;;;;;;;4.80;4.80;;;;;;;;5068861;28;8855;-77
2023/09/16 12:59:18;;;;;;;;;6.00;4.20;;;;;;;;5068721;28;8863;-77
2023/09/16 13:01:46;;;;;;;;;3.00;2.80;;;;;;;;5067070;28;8828;-77
2023/09/16 13:04:13;;;;;;;;;3.80;3.80;;;;;;;;5069593;28;8894;-77
2023/09/16 13:06:45;;;;;;;;;7.00;5.20;;;;;;;;5070752;28;8856;-77
2023/09/16 13:09:13;;;;;;;;;4.80;4.80;;;;;;;;5071086;28;8872;-76
2023/09/16 13:11:43;;;;;;;;;6.60;5.00;;;;;;;;5069395;28;9604;-76
2023/09/16 13:14:12;;;;;;;;;5.80;5.80;;;;;;;;5071811;28;8852;-78
2023/09/16 13:16:42;;;;;;;;;3.00;3.00;;;;;;;;5063141;28;8844;-78
2023/09/16 13:19:14;;;;;;;;;4.80;4.80;;;;;;;;5067610;28;8966;-77
2023/09/16 13:21:42;;;;;;;;;4.60;3.00;;;;;;;;5067495;28;8844;-77
2023/09/16 13:24:11;;;;;;;;;6.60;6.00;;;;;;;;5067050;28;9039;-77
2023/09/16 13:26:54;;;;;;;;;4.80;4.80;;;;;;;;5067360;28;8848;-77
2023/09/16 13:29:21;;;;;;;;;7.00;5.20;;;;;;;;5066517;28;8974;-77
2023/09/16 13:32:05;;;;;;;;;6.00;5.00;;;;;;;;5067270;28;8812;-77
2023/09/16 13:34:44;;;;;;;;;5.00;5.00;;;;;;;;5055418;28;8856;-81
2023/09/16 13:37:11;;;;;;;;;4.60;4.60;;;;;;;;5067079;28;8868;-77
2023/09/16 13:39:47;;;;;;;;;5.40;5.40;;;;;;;;5067008;28;9647;-79
2023/09/16 13:42:15;;;;;;;;;6.80;6.80;;;;;;;;5067205;28;8857;-77
2023/09/16 13:44:46;;;;;;;;;6.00;6.00;;;;;;;;5067914;28;8878;-80
2023/09/16 13:47:14;;;;;;;;;6.00;6.00;;;;;;;;5067550;28;9524;-77
2023/09/16 13:49:41;;;;;;;;;6.40;6.40;;;;;;;;5067329;28;8844;-79
2023/09/16 13:52:08;;;;;;;;;5.40;5.40;;;;;;;;5066147;28;8878;-78
2023/09/16 13:54:36;;;;;;;;;5.00;5.00;;;;;;;;5066691;28;8864;-78
2023/09/16 13:57:03;;;;;;;;;4.00;4.00;;;;;;;;5066745;28;8844;-77
2023/09/16 13:59:31;;;;;;;;;5.80;5.00;;;;;;;;5066972;28;8934;-78
2023/09/16 14:02:00;;;;;;;;;3.80;3.80;;;;;;;;5066381;28;8843;-78
2023/09/16 14:04:28;;;;;;;;;2.00;2.00;;;;;;;;5066906;28;8882;-76
2023/09/16 14:06:56;;;;;;;;;6.00;4.60;;;;;;;;5058220;28;8852;-81
2023/09/16 14:09:24;;;;;;;;;4.60;4.60;;;;;;;;5067355;28;8855;-79
2023/09/16 14:11:51;;;;;;;;;5.00;5.00;;;;;;;;5067568;28;8874;-79
2023/09/16 14:14:24;;;;;;;;;3.60;3.60;;;;;;;;5068564;28;8844;-77
2023/09/16 14:16:51;;;;;;;;;4.20;4.20;;;;;;;;5071258;28;8883;-78
2023/09/16 14:19:19;;;;;;;;;6.00;4.60;;;;;;;;5070706;28;8836;-78
2023/09/16 14:21:48;;;;;;;;;2.40;2.40;;;;;;;;5071506;28;8972;-78
2023/09/16 14:24:20;;;;;;;;;6.00;6.00;;;;;;;;5070830;28;8939;-78
2023/09/16 14:26:50;;;;;;;;;5.20;5.20;;;;;;;;5071387;28;8871;-78
2023/09/16 14:29:18;;;;;;;;;5.00;5.00;;;;;;;;5070520;28;8886;-78
2023/09/16 14:31:45;;;;;;;;;7.00;5.20;;;;;;;;5070168;28;8848;-78
2023/09/16 14:34:12;;;;;;;;;4.00;3.40;;;;;;;;5070038;28;8853;-77
2023/09/16 14:36:40;;;;;;;;;4.00;4.00;;;;;;;;5070269;28;8945;-77
2023/09/16 14:39:09;;;;;;;;;6.00;6.00;;;;;;;;5071274;28;8841;-78
2023/09/16 14:41:36;;;;;;;;;5.40;4.80;;;;;;;;5072172;28;8848;-77
2023/09/16 14:44:03;;;;;;;;;4.60;4.60;;;;;;;;5073686;28;8864;-77
2023/09/16 14:46:30;;;;;;;;;3.80;3.80;;;;;;;;5073815;28;8856;-77
2023/09/16 14:48:58;;;;;;;;;3.20;3.20;;;;;;;;5073674;28;9579;-76
2023/09/16 14:51:27;;;;;;;;;4.60;4.00;;;;;;;;5074614;28;8864;-76
2023/09/16 14:53:56;;;;;;;;;4.20;4.20;;;;;;;;5058043;28;8888;-78
2023/09/16 14:56:24;;;;;;;;;4.00;4.00;;;;;;;;5069955;28;8860;-76
2023/09/16 14:58:51;;;;;;;;;5.00;5.00;;;;;;;;5069759;28;8879;-76
2023/09/16 15:01:19;;;;;;;;;4.00;4.00;;;;;;;;5070873;28;9634;-78